Terminal Aerodrome Forecast
Issued by NWS

Home | Current Version | Previous Version | Text Only | Print | Product List | Glossary On
Versions: 1 2 3 4 5 6 7 8 9 10 11 12 13 14 15 16
176
FTUS42 KTBW 170530
TAFPGD
TAF
KPGD 170530Z 1706/1806 07004KT P6SM BKN250
     FM170800 VRB03KT 6SM BR FEW005 BKN250
      TEMPO 1709/1713 3SM BR SCT005
     FM171300 09004KT P6SM FEW015 SCT250
     FM171500 11008KT P6SM SCT025 SCT250
     FM171700 14008KT P6SM SCT040 SCT250
     FM172300 VRB03KT P6SM SCT250=

USA.gov is the U.S. government's official web portal to all federal, state and local government web resources and services.